Flight Track Log - Related Links

Times and Time Zones

All times are in EST time to prevent confusion due to time zone crossing. See the BLS386 flight status page for this flight to view local times or setup timezone preferences in your user account.

Time Position Orientation Groundspeed Altitude Reporting Facility
EST Latitude Longitude Course Direction KTS MPH feet Rate Location/Type
Mon 01:46:30 PM 46.6167 -80.7500 348° North 150 173 2,000  Level Toronto Center
Mon 01:47:30 PM 46.6167 -80.7000 90° East 150 173 4,400 2,250 Climbing Toronto Center
Mon 01:48:30 PM 46.6500 -80.6333 54° Northeast 180 207 6,500 1,950 Climbing Toronto Center
Mon 01:49:30 PM 46.7000 -80.6333 360° North 200 230 8,300 1,550 Climbing Toronto Center
Mon 01:50:30 PM 46.7667 -80.6333 360° North 220 253 9,600 1,300 Climbing Toronto Center
Mon 01:51:30 PM 46.8167 -80.6500 347° North 220 253 10,900 1,200 Climbing Toronto Center
Mon 01:52:00 PM 47.0436 -80.9181 348° North  Level FlightAware
Mon 01:52:30 PM 46.8833 -80.6833 341° North 230 265 12,000  Level Toronto Center
Mon 01:53:30 PM 46.9500 -80.7000 350° North 230 265 13,400 1,000 Climbing Toronto Center
Mon 01:54:30 PM 47.0167 -80.7333 341° North 230 265 14,000 300 Climbing Toronto Center
Mon 01:55:30 PM 47.0833 -80.7500 350° North 250 288 14,000  Level Toronto Center
Mon 01:56:30 PM 47.1500 -80.7833 341° North 270 311 14,000  Level Toronto Center
Mon 01:57:30 PM 47.2333 -80.8167 345° North 280 322 14,000 50 Level Toronto Center
Mon 01:58:30 PM 47.3000 -80.8667 333° Northwest 270 311 14,100 50 Climbing Toronto Center
Mon 01:59:30 PM 47.3667 -80.8833 350° North 270 311 14,100  Level Toronto Center
Mon 02:00:30 PM 47.4333 -80.9167 341° North 270 311 14,100  Level Toronto Center
Mon 02:01:30 PM 47.5000 -80.9333 350° North 270 311 14,100  Level Toronto Center
Mon 02:02:30 PM 47.5833 -80.9667 345° North 270 311 14,100  Level Toronto Center
Mon 02:03:30 PM 47.6500 -81.0000 341° North 270 311 14,100  Level Toronto Center
Mon 02:04:30 PM 47.7167 -81.0167 350° North 270 311 14,100  Level Toronto Center
Mon 02:05:30 PM 47.8000 -81.0500 345° North 270 311 14,100  Level Toronto Center
Mon 02:06:30 PM 47.8667 -81.0667 350° North 270 311 14,100  Level Toronto Center
Mon 02:07:30 PM 47.9500 -81.1000 345° North 270 311 14,100 -750 Level Toronto Center
Mon 02:08:30 PM 48.0333 -81.1333 345° North 290 334 12,600 -1,500 Descending Toronto Center
Mon 02:11:00 PM 48.1149 -81.1985 332° Northwest  Level FlightAware
Mon 02:18:00 PM 48.5344 -81.3667 North  Level FlightAware
Mon 02:19:00 PM 48.5667 -81.3667 North  Level FlightAware

Login

Don't have an account? Register now (free) for customized features, flight alerts, and more!